Time;durP1;ratioP1;P1;durP2;ratioP2;P2;SDS_P1;SDS_P2;PMS_P1;PMS_P2;Temp;Humidity;BMP_temperature;BMP_pressure;BME280_temperature;BME280_humidity;BME280_pressure;Samples;Min_cycle;Max_cycle;Signal;HPM_P1;HPM_P2
2023/01/31 00:00:20;;;;;;;8.90;4.90;;;;;;;1.58;91.02;98807.04;211673;1282;139364;-65
2023/01/31 00:05:46;;;;;;;7.30;3.50;;;;;;;1.58;90.90;98810.51;210845;1294;219850;-66
2023/01/31 00:10:50;;;;;;;3.80;2.30;;;;;;;1.61;91.05;98809.42;211926;1294;139539;-67
2023/01/31 00:15:57;;;;;;;6.50;4.20;;;;;;;1.64;91.01;98810.65;210836;1285;139705;-66
2023/01/31 00:21:09;;;;;;;8.10;4.60;;;;;;;1.63;91.00;98822.48;211934;1285;140091;-67
2023/01/31 00:26:20;;;;;;;10.60;5.30;;;;;;;1.62;90.83;98824.14;212394;1294;139964;-64
2023/01/31 00:31:28;;;;;;;7.00;3.80;;;;;;;1.63;90.86;98831.58;210857;1278;139650;-64
2023/01/31 00:36:36;;;;;;;5.70;3.10;;;;;;;1.64;90.75;98834.65;211986;1295;139273;-65
2023/01/31 00:41:41;;;;;;;11.90;4.90;;;;;;;1.63;90.87;98847.42;212721;1291;141962;-68
2023/01/31 00:46:46;;;;;;;14.70;4.10;;;;;;;1.63;90.99;98858.77;212840;1285;140603;-67
2023/01/31 00:51:51;;;;;;;7.60;2.90;;;;;;;1.66;91.03;98861.65;212780;1295;139958;-67
2023/01/31 00:56:55;;;;;;;13.50;5.30;;;;;;;1.72;91.00;98867.81;212766;1301;139541;-64
2023/01/31 01:02:01;;;;;;;9.10;4.40;;;;;;;1.79;90.99;98872.48;213585;1299;141688;-65
2023/01/31 01:07:06;;;;;;;16.60;4.00;;;;;;;1.84;90.70;98879.99;212413;1278;140685;-63
2023/01/31 01:12:11;;;;;;;16.20;4.90;;;;;;;1.88;90.61;98883.16;212386;1294;139820;-66
2023/01/31 01:17:15;;;;;;;8.70;3.50;;;;;;;1.88;90.57;98887.89;212720;1287;140468;-66
2023/01/31 01:22:20;;;;;;;14.40;5.70;;;;;;;1.89;90.70;98890.20;212124;1288;139350;-66
2023/01/31 01:27:23;;;;;;;8.50;4.20;;;;;;;1.90;90.40;98888.14;210743;1286;140099;-64
2023/01/31 01:32:28;;;;;;;11.70;5.10;;;;;;;1.90;90.27;98886.59;210849;1294;139978;-66
2023/01/31 01:37:35;;;;;;;7.70;3.10;;;;;;;1.87;90.53;98886.98;212039;1294;139837;-64
2023/01/31 01:42:39;;;;;;;14.20;4.00;;;;;;;1.85;90.43;98896.52;211623;1294;139613;-66
2023/01/31 01:47:53;;;;;;;18.50;4.40;;;;;;;1.85;90.31;98899.73;211584;1286;140897;-66
2023/01/31 01:53:09;;;;;;;8.80;3.20;;;;;;;1.86;90.28;98905.02;211669;1286;139369;-66
2023/01/31 01:58:19;;;;;;;14.20;4.30;;;;;;;1.86;90.40;98909.88;211838;1294;139763;-67
2023/01/31 02:03:23;;;;;;;10.80;5.50;;;;;;;1.84;90.09;98910.80;210990;1286;139485;-64
2023/01/31 02:08:30;;;;;;;12.10;4.40;;;;;;;1.83;89.97;98917.17;211104;1294;140208;-66
2023/01/31 02:13:40;;;;;;;8.60;4.10;;;;;;;1.84;90.17;98922.25;211906;1287;139690;-67
2023/01/31 02:18:47;;;;;;;12.30;3.50;;;;;;;1.85;90.08;98935.83;211380;1285;139417;-69
2023/01/31 02:24:29;;;;;;;9.30;4.10;;;;;;;1.84;89.73;98941.73;210880;1278;140204;-68
2023/01/31 02:30:03;;;;;;;9.80;3.10;;;;;;;1.84;89.70;98945.17;212144;1287;139627;-68
2023/01/31 02:35:48;;;;;;;23.20;3.70;;;;;;;1.82;89.92;98960.58;211325;1291;138868;-67
2023/01/31 02:41:05;;;;;;;11.10;3.30;;;;;;;1.82;89.65;98962.15;211664;1294;139740;-67
2023/01/31 02:46:17;;;;;;;4.90;2.00;;;;;;;1.82;89.50;98970.93;213754;1295;139718;-67
2023/01/31 02:51:32;;;;;;;11.90;3.10;;;;;;;1.81;89.58;98976.95;213508;1297;141206;-67
2023/01/31 02:56:40;;;;;;;10.70;3.00;;;;;;;1.81;89.29;98986.95;213702;1298;140309;-68
2023/01/31 03:01:50;;;;;;;7.00;2.80;;;;;;;1.85;89.04;98992.02;212782;1291;140216;-66
2023/01/31 03:07:01;;;;;;;15.10;3.10;;;;;;;1.86;88.93;99005.20;212400;1284;140590;-66
2023/01/31 03:12:29;;;;;;;13.70;3.40;;;;;;;1.87;88.81;99013.70;211560;1286;140556;-65
2023/01/31 03:17:45;;;;;;;13.20;4.60;;;;;;;1.88;88.74;99018.10;211013;1285;139553;-69
2023/01/31 03:23:04;;;;;;;13.90;5.40;;;;;;;1.87;88.95;99029.19;210856;1294;140421;-68
2023/01/31 03:28:14;;;;;;;18.20;5.00;;;;;;;1.84;88.34;99040.23;211570;1294;139703;-67
2023/01/31 03:33:33;;;;;;;12.60;2.50;;;;;;;1.81;88.43;99049.09;210985;1297;141491;-65
2023/01/31 03:39:08;;;;;;;10.10;4.80;;;;;;;1.84;88.34;99064.39;211561;1291;140712;-66
2023/01/31 03:44:27;;;;;;;8.20;2.80;;;;;;;1.82;88.15;99071.39;210849;1285;139628;-72
2023/01/31 03:49:33;;;;;;;19.20;4.90;;;;;;;1.81;88.23;99078.59;210932;1291;141364;-71
2023/01/31 03:54:46;;;;;;;6.80;3.00;;;;;;;1.82;88.15;99085.46;211706;1295;140312;-70
2023/01/31 03:59:56;;;;;;;5.20;2.20;;;;;;;1.82;87.92;99092.98;211188;1286;140897;-69
2023/01/31 04:05:17;;;;;;;5.60;2.20;;;;;;;1.80;87.73;99103.04;210753;1284;140221;-70
2023/01/31 04:10:25;;;;;;;6.30;2.30;;;;;;;1.78;87.71;99110.27;211646;1291;140660;-69
2023/01/31 04:15:29;;;;;;;12.20;3.00;;;;;;;1.78;87.48;99124.00;211461;1292;141352;-69
2023/01/31 04:20:33;;;;;;;14.40;3.40;;;;;;;1.77;87.49;99129.70;210931;1293;139303;-70
2023/01/31 04:25:37;;;;;;;6.70;2.60;;;;;;;1.76;87.00;99138.10;211525;1285;140276;-69
2023/01/31 04:30:40;;;;;;;5.90;1.80;;;;;;;1.75;87.42;99143.23;211786;1285;139251;-69
2023/01/31 04:35:44;;;;;;;8.80;3.10;;;;;;;1.73;86.83;99140.74;210819;1292;139615;-65
2023/01/31 04:40:49;;;;;;;6.00;2.30;;;;;;;1.73;87.07;99148.83;210801;1285;140255;-65
2023/01/31 04:45:54;;;;;;;8.50;2.30;;;;;;;1.72;87.15;99149.27;213882;1292;140545;-66
2023/01/31 04:50:58;;;;;;;12.00;4.70;;;;;;;1.72;86.78;99153.27;213765;1292;140386;-66
2023/01/31 04:56:02;;;;;;;3.90;1.90;;;;;;;1.73;86.67;99162.65;211967;1295;141958;-67
2023/01/31 05:01:07;;;;;;;7.60;2.60;;;;;;;1.72;86.63;99165.92;213895;1292;139511;-63
2023/01/31 05:06:11;;;;;;;14.50;2.90;;;;;;;1.72;86.22;99171.90;213663;1292;140218;-65
2023/01/31 05:11:16;;;;;;;6.30;2.80;;;;;;;1.74;86.44;99181.42;211995;1286;140000;-66
2023/01/31 05:16:22;;;;;;;3.60;2.40;;;;;;;1.74;86.32;99186.39;211943;1278;139565;-66
2023/01/31 05:21:27;;;;;;;12.60;2.70;;;;;;;1.73;85.93;99201.70;210789;1291;139833;-66
2023/01/31 05:26:31;;;;;;;5.50;2.90;;;;;;;1.71;85.89;99208.96;211220;1284;140487;-66
2023/01/31 05:31:35;;;;;;;15.00;3.90;;;;;;;1.66;85.85;99223.35;210836;1291;302533;-67
2023/01/31 05:36:41;;;;;;;9.70;2.90;;;;;;;1.64;85.76;99234.41;210592;1292;139412;-68
2023/01/31 05:41:46;;;;;;;13.80;3.20;;;;;;;1.64;85.99;99243.50;211345;1297;139369;-68
2023/01/31 05:46:50;;;;;;;4.50;2.10;;;;;;;1.65;85.37;99262.15;210776;1292;139977;-67
2023/01/31 05:51:55;;;;;;;11.90;3.10;;;;;;;1.63;85.72;99268.23;210930;1296;140165;-69
2023/01/31 05:56:59;;;;;;;8.90;2.50;;;;;;;1.60;85.33;99277.86;211235;1296;141145;-69
2023/01/31 06:02:07;;;;;;;6.70;2.70;;;;;;;1.59;85.60;99279.26;211363;1284;138962;-69
2023/01/31 06:07:13;;;;;;;8.70;3.60;;;;;;;1.56;85.50;99287.44;211586;1291;139464;-69
2023/01/31 06:12:18;;;;;;;9.40;3.00;;;;;;;1.53;85.31;99295.66;211562;1292;139754;-70
2023/01/31 06:17:25;;;;;;;12.20;3.00;;;;;;;1.53;85.15;99303.84;211854;1292;140138;-67
2023/01/31 06:22:32;;;;;;;9.50;3.20;;;;;;;1.52;85.16;99311.14;212350;1297;140427;-67
2023/01/31 06:27:37;;;;;;;7.40;3.00;;;;;;;1.52;85.00;99328.23;212018;1290;140985;-68
2023/01/31 06:32:41;;;;;;;11.60;3.10;;;;;;;1.54;85.13;99333.73;213908;1292;142301;-67
2023/01/31 06:37:47;;;;;;;6.00;3.50;;;;;;;1.58;84.85;99341.86;212716;1292;140141;-69
2023/01/31 06:42:52;;;;;;;7.10;2.90;;;;;;;1.62;84.86;99352.93;213675;1295;139438;-69
2023/01/31 06:47:58;;;;;;;9.80;3.20;;;;;;;1.64;84.49;99355.79;213763;1292;141290;-67
2023/01/31 06:53:03;;;;;;;4.50;3.00;;;;;;;1.66;84.24;99368.90;213559;1288;139090;-69
2023/01/31 06:58:07;;;;;;;;;;;;;;;1.71;84.35;99369.80;211892;1297;140189;-67
2023/01/31 07:03:12;;;;;;;;;;;;;;;1.71;84.02;99377.81;211868;1292;125666;-68
2023/01/31 07:08:16;;;;;;;;;;;;;;;1.73;84.05;99381.42;212805;1291;127740;-65
2023/01/31 07:13:21;;;;;;;;;;;;;;;1.75;84.06;99393.02;211402;1291;127382;-65
2023/01/31 07:18:25;;;;;;;;;;;;;;;1.78;83.86;99399.77;212472;1292;127532;-65
2023/01/31 07:23:30;;;;;;;;;;;;;;;1.80;83.80;99411.71;211302;1286;125636;-67
2023/01/31 07:28:35;;;;;;;;;;;;;;;1.83;83.73;99419.02;212463;1297;126210;-66
2023/01/31 07:33:39;;;;;;;;;;;;;;;1.87;83.72;99422.20;212033;1288;127569;-65
2023/01/31 07:38:42;;;;;;;;;;;;;;;1.93;83.64;99430.31;211395;1279;125770;-67
2023/01/31 07:43:46;;;;;;;;;;;;;;;1.98;83.41;99435.79;212100;1292;126366;-65
2023/01/31 07:48:50;;;;;;;;;;;;;;;2.04;83.48;99435.41;211531;1286;125714;-66
2023/01/31 07:53:55;;;;;;;;;;;;;;;2.12;83.33;99446.77;211279;1287;128415;-64
2023/01/31 07:58:59;;;;;;;;;;;;;;;2.19;82.87;99447.95;211573;1284;127052;-67
2023/01/31 08:04:03;;;;;;;;;;;;;;;2.24;82.93;99448.30;212584;1279;127237;-67
2023/01/31 08:09:23;;;;;;;;;;;;;;;2.29;82.87;99449.80;212327;1293;126548;-68
2023/01/31 08:14:27;;;;;;;;;;;;;;;2.32;82.42;99458.90;211200;1285;125848;-68
2023/01/31 08:19:33;;;;;;;;;;;;;;;2.34;82.43;99467.42;211006;1292;126385;-66
2023/01/31 08:24:38;;;;;;;;;;;;;;;2.36;82.15;99467.40;212166;1284;127170;-68
2023/01/31 08:29:44;;;;;;;;;;;;;;;2.35;81.79;99469.66;212383;1295;127281;-68
2023/01/31 08:34:48;;;;;;;;;;;;;;;2.33;81.89;99476.36;212939;1292;127161;-68
2023/01/31 08:39:54;;;;;;;;;;;;;;;2.34;81.66;99474.46;213498;1292;126643;-66
2023/01/31 08:44:58;;;;;;;;;;;;;;;2.36;81.57;99474.27;212698;1292;126619;-67
2023/01/31 08:50:02;;;;;;;;;;;;;;;2.39;81.36;99476.53;214207;1291;127323;-66
2023/01/31 08:55:08;;;;;;;;;;;;;;;2.46;81.41;99484.06;213226;1286;126110;-66
2023/01/31 09:00:17;;;;;;;;;;;;;;;2.57;81.06;99491.09;212684;1286;126509;-67
2023/01/31 09:05:22;;;;;;;;;;;;;;;2.67;80.82;99496.74;212836;1287;126206;-66
2023/01/31 09:10:26;;;;;;;;;;;;;;;2.73;80.12;99502.78;211845;1286;126908;-67
2023/01/31 09:15:32;;;;;;;;;;;;;;;2.90;80.08;99508.62;212361;1294;125765;-67
2023/01/31 09:20:35;;;;;;;;;;;;;;;3.00;79.63;99507.54;211512;1288;125631;-68
2023/01/31 09:25:40;;;;;;;;;;;;;;;3.08;79.54;99514.02;212723;1290;126375;-68
2023/01/31 09:30:52;;;;;;;;;;;;;;;3.21;79.13;99514.92;211606;1284;125932;-65
2023/01/31 09:36:01;;;;;;;;;;;;;;;3.32;79.01;99517.11;211215;1292;126383;-67
2023/01/31 09:41:05;;;;;;;;;;;;;;;3.37;78.31;99509.55;212069;1285;126735;-66
2023/01/31 09:46:13;;;;;;;;;;;;;;;3.41;77.82;99512.13;210988;1291;209425;-67
2023/01/31 09:51:17;;;;;;;;;;;;;;;3.46;77.47;99515.89;211433;1285;126564;-68
2023/01/31 09:56:36;;;;;;;;;;;;;;;3.48;77.15;99519.06;211510;1286;127036;-68
2023/01/31 10:01:59;;;;;;;;;;;;;;;3.48;76.76;99526.21;212148;1290;126356;-69
2023/01/31 10:07:18;;;;;;;;;;;;;;;3.44;76.55;99528.36;212026;1285;126482;-67
2023/01/31 10:12:33;;;;;;;;;;;;;;;3.39;76.21;99532.27;211174;1291;127932;-69
2023/01/31 10:17:39;;;;;;;;;;;;;;;3.28;76.20;99533.98;211400;1286;126924;-70
2023/01/31 10:23:03;;;;;;;;;;;;;;;3.19;76.30;99538.54;211920;1286;127376;-67
2023/01/31 10:28:15;;;;;;;;;;;;;;;3.06;76.19;99535.37;213087;1284;125732;-67
2023/01/31 10:33:24;;;;;;;;;;;;;;;2.96;76.03;99543.77;212794;1290;127294;-66
2023/01/31 10:38:37;;;;;;;;;;;;;;;2.92;76.11;99548.50;213657;1293;125976;-65
2023/01/31 10:43:47;;;;;;;;;;;;;;;2.87;75.94;99539.86;214184;1292;126475;-64
2023/01/31 10:48:52;;;;;;;;;;;;;;;2.87;75.77;99527.88;214189;1295;125679;-65
2023/01/31 10:54:01;;;;;;;;;;;;;;;2.90;75.69;99529.27;213287;1292;126597;-64
2023/01/31 10:59:11;;;;;;;;;;;;;;;2.99;75.79;99527.42;213096;1285;125748;-66
2023/01/31 11:04:24;;;;;;;;;;;;;;;3.09;75.69;99525.05;212989;1289;126089;-65
2023/01/31 11:09:31;;;;;;;;;;;;;;;3.16;75.64;99515.14;212077;1294;126360;-67
2023/01/31 11:14:35;;;;;;;;;;;;;;;3.25;75.66;99517.39;211908;1285;126593;-65
2023/01/31 11:20:05;;;;;;;;;;;;;;;3.29;75.67;99513.94;212232;1286;126974;-65
2023/01/31 11:25:17;;;;;;;;;;;;;;;3.35;75.58;99510.41;211718;1294;127984;-64
2023/01/31 11:30:27;;;;;;;;;;;;;;;3.32;75.25;99516.99;211829;1286;127502;-65
2023/01/31 11:35:34;;;;;;;;;;;;;;;3.26;75.42;99517.60;211993;1285;125384;-65
2023/01/31 11:40:39;;;;;;;;;;;;;;;3.20;75.13;99514.60;212178;1294;125580;-64
2023/01/31 11:45:44;;;;;;;;;;;;;;;3.15;75.02;99504.91;211647;1294;126460;-65
2023/01/31 11:50:52;;;;;;;;;;;;;;;3.13;75.03;99492.02;211405;1285;127042;-65
2023/01/31 11:55:58;;;;;;;;;;;;;;;3.13;75.02;99486.38;211860;1286;125684;-65
2023/01/31 12:01:17;;;;;;;;;;;;;;;3.18;75.01;99474.35;211576;1291;125978;-65
2023/01/31 12:06:35;;;;;;;;;;;;;;;3.17;74.76;99465.54;212656;1292;125110;-65
2023/01/31 12:11:48;;;;;;;;;;;;;;;3.12;74.57;99463.52;211599;1286;126012;-65
2023/01/31 12:16:54;;;;;;;;;;;;;;;3.09;74.55;99468.67;212256;1292;126639;-66
2023/01/31 12:22:06;;;;;;;;;;;;;;;3.13;74.64;99468.52;211851;1286;126189;-66
2023/01/31 12:27:31;;;;;;;;;;;;;;;3.18;74.48;99461.21;212915;1294;125873;-68
2023/01/31 12:32:40;;;;;;;;;;;;;;;3.14;74.29;99451.79;213992;1291;126566;-67
2023/01/31 12:37:51;;;;;;;;;;;;;;;3.21;74.18;99442.31;214076;1295;129191;-65
2023/01/31 12:42:55;;;;;;;;;;;;;;;3.33;74.21;99441.17;213816;1293;126406;-66
2023/01/31 12:48:12;;;;;;;;;;;;;;;3.36;73.97;99438.98;213260;1285;127000;-65
2023/01/31 12:53:17;;;;;;;;;;;;;;;3.39;73.96;99440.12;211028;1294;126384;-65
2023/01/31 12:58:22;;;;;;;;;;;;;;;3.44;73.68;99432.56;211320;1285;126735;-65
2023/01/31 13:03:36;;;;;;;;;;;;;;;3.40;73.62;99431.30;212168;1294;146165;-64
2023/01/31 13:08:49;;;;;;;;;;;;;;;3.38;73.57;99423.83;211440;1293;125837;-65
2023/01/31 13:14:13;;;;;;;;;;;;;;;3.36;73.48;99415.20;211922;1294;125682;-65
2023/01/31 13:19:37;;;;;;;;;;;;;;;3.37;73.45;99422.84;211640;1284;125348;-65
2023/01/31 13:24:44;;;;;;;;;;;;;;;3.39;73.39;99422.73;212138;1294;125932;-64
2023/01/31 13:29:52;;;;;;;;;;;;;;;3.35;73.26;99410.33;211217;1292;125083;-65
2023/01/31 13:35:02;;;;;;;;;;;;;;;3.35;73.34;99395.41;211029;1291;125342;-65
2023/01/31 13:40:13;;;;;;;;;;;;;;;3.38;73.27;99387.63;211041;1285;126108;-65
2023/01/31 13:45:41;;;;;;;;;;;;;;;3.42;73.45;99377.98;211125;1285;125471;-65
2023/01/31 13:50:57;;;;;;;;;;;;;;;3.43;73.43;99381.17;211342;1285;125592;-65
2023/01/31 13:56:04;;;;;;;;;;;;;;;3.36;73.39;99380.98;211990;1281;125741;-67
2023/01/31 14:01:15;;;;;;;;;;;;;;;3.27;73.28;99378.85;211859;1293;146267;-65
2023/01/31 14:06:20;;;;;;;;;;;;;;;3.23;73.65;99381.30;212208;1281;125280;-65
2023/01/31 14:11:26;;;;;;;;;;;;;;;3.17;73.73;99378.02;211439;1281;125248;-64
2023/01/31 14:16:41;;;;;;;;;;;;;;;3.17;73.91;99368.66;213617;1295;125818;-64
2023/01/31 14:21:56;;;;;;;;;;;;;;;3.16;74.05;99365.94;211612;1293;125650;-66
2023/01/31 14:27:02;;;;;;;;;;;;;;;3.13;74.08;99356.40;214241;1292;126721;-65
2023/01/31 14:32:13;;;;;;;;;;;;;;;3.11;74.14;99349.02;214171;1295;126127;-65
2023/01/31 14:37:17;;;;;;;;;;;;;;;3.11;74.43;99339.70;213873;1285;124706;-64
2023/01/31 14:42:31;;;;;;;;;;;;;;;3.09;74.22;99336.98;212766;1292;125700;-65
2023/01/31 14:47:56;;;;;;;;;;;;;;;3.03;74.20;99331.55;213522;1286;126766;-65
2023/01/31 14:53:27;;;;;;;;;;;;;;;2.96;74.43;99326.89;211362;1292;125944;-66
2023/01/31 14:58:34;;;;;;;;;;;;;;;2.91;74.75;99314.10;211809;1295;125604;-65
2023/01/31 15:03:48;;;;;;;;;;;;;;;2.87;75.02;99311.48;211748;1294;125843;-65
2023/01/31 15:09:20;;;;;;;;;;;;;;;2.88;75.29;99310.88;211443;1285;126128;-64
2023/01/31 15:14:37;;;;;;;;;;;;;;;2.90;75.68;99318.55;211158;1288;125967;-65
2023/01/31 15:19:44;;;;;;;;;;;;;;;2.85;75.92;99314.95;211262;1287;124984;-64
2023/01/31 15:24:55;;;;;;;;;;;;;;;2.75;76.30;99313.95;211579;1284;125024;-64
2023/01/31 15:30:08;;;;;;;;;;;;;;;2.71;76.43;99308.34;211921;1294;124911;-64
2023/01/31 15:35:23;;;;;;;;;;;;;;;2.69;76.66;99305.93;211784;1292;125665;-64
2023/01/31 15:40:27;;;;;;;;;;;;;;;2.67;76.71;99300.95;211410;1286;126640;-64
2023/01/31 15:45:31;;;;;;;;;;;;;;;2.63;76.81;99307.39;211547;1292;126038;-64
2023/01/31 15:50:36;;;;;;;;;;;;;;;2.61;77.22;99314.98;211612;1294;125927;-65
2023/01/31 15:55:41;;;;;;;;;;;;;;;2.64;77.43;99319.23;212190;1286;127262;-64
2023/01/31 16:00:49;;;;;;;;;;;;;;;2.61;77.68;99309.56;212769;1294;126197;-64
2023/01/31 16:05:54;;;;;;;;;;;;;;;2.58;78.16;99300.12;211930;1292;125807;-67
2023/01/31 16:11:00;;;;;;;;;;;;;;;2.53;78.03;99295.30;211054;1295;126862;-67
2023/01/31 16:16:12;;;;;;;;;;;;;;;2.47;78.54;99294.73;211410;1285;126987;-66
2023/01/31 16:21:27;;;;;;;;;;;;;;;2.40;78.64;99295.12;211908;1292;126768;-67
2023/01/31 16:26:33;;;;;;;;;;;;;;;2.29;79.04;99296.66;211086;1294;125887;-66
2023/01/31 16:31:43;;;;;;;;;;;;;;;2.23;79.49;99297.38;214239;1294;126093;-67
2023/01/31 16:36:53;;;;;;;;;;;;;;;2.18;79.74;99291.71;213078;1285;125770;-66
2023/01/31 16:41:59;;;;;;;;;;;;;;;2.15;80.18;99287.61;211702;1292;126842;-66
2023/01/31 16:47:05;;;;;;;;;;;;;;;2.17;80.54;99279.48;211516;1286;126821;-67
2023/01/31 16:52:36;;;;;;;;;;;;;;;2.13;80.57;99271.31;210915;1292;126613;-67
2023/01/31 16:57:41;;;;;;;;;;;;;;;2.12;81.09;99264.43;211463;1300;126411;-66
2023/01/31 17:02:45;;;;;;;;;;;;;;;2.12;81.34;99258.33;211045;1294;126880;-65
2023/01/31 17:07:52;;;;;;;;;;;;;;;2.12;81.69;99259.13;212233;1290;126392;-65
2023/01/31 17:12:57;;;;;;;;;;;;;;;2.10;81.83;99249.60;211248;1293;127248;-64
2023/01/31 17:18:02;;;;;;;;;;;;;;;2.07;82.05;99248.21;211849;1295;126787;-65
2023/01/31 17:23:09;;;;;;;;;;;;;;;2.05;82.27;99236.23;211427;1291;127014;-65
2023/01/31 17:28:16;;;;;;;;;;;;;;;1.98;82.31;99225.45;211104;1292;125775;-65
2023/01/31 17:33:22;;;;;;;;;;;;;;;1.95;82.60;99217.50;210396;1291;1174076;-63
2023/01/31 17:38:28;;;;;;;;;;;;;;;1.92;82.52;99206.31;211566;1289;125775;-64
2023/01/31 17:43:33;;;;;;;;;;;;;;;1.89;82.75;99199.50;211383;1290;127224;-62
2023/01/31 17:48:42;;;;;;;;;;;;;;;1.86;83.10;99186.02;211434;1284;125966;-64
2023/01/31 17:53:55;;;;;;;;;;;;;;;1.84;83.05;99173.84;211598;1294;125930;-63
2023/01/31 17:59:06;;;;;;;;;;;;;;;1.76;82.75;99159.52;211736;1294;126604;-63
2023/01/31 18:04:31;;;;;;;;;;;;;;;1.71;83.21;99147.11;213392;1292;126642;-64
2023/01/31 18:09:38;;;;;;;;;;;;;;;1.66;83.33;99136.66;211803;1292;126168;-66
2023/01/31 18:14:47;;;;;;;;;;;;;;;1.63;83.35;99122.48;211100;1292;126352;-67
2023/01/31 18:19:54;;;;;;;;;;;;;;;1.62;83.68;99116.82;212474;1293;127195;-67
2023/01/31 18:25:02;;;;;;;;;;;;;;;1.61;83.64;99105.86;214166;1292;127418;-67
2023/01/31 18:30:11;;;;;;;;;;;;;;;1.62;83.77;99097.45;214091;1295;126341;-68
2023/01/31 18:35:20;;;;;;;;;;;;;;;1.62;83.50;99086.75;211546;1294;126807;-66
2023/01/31 18:40:25;;;;;;;;;;;;;;;1.62;83.85;99079.84;211311;1292;126571;-67
2023/01/31 18:45:29;;;;;;;;;;;;;;;1.64;83.91;99079.65;210950;1289;125769;-67
2023/01/31 18:50:34;;;;;;;;;;;;;;;1.65;84.10;99075.70;211147;1288;126457;-64
2023/01/31 18:55:39;;;;;;;;;;;;;;;1.64;84.55;99067.15;212572;1289;125791;-65
2023/01/31 19:00:43;;;;;;;;;;;;;;;1.65;84.41;99058.45;211542;1292;126298;-65
2023/01/31 19:05:48;;;;;;;;;;;;;;;1.66;84.84;99052.58;212370;1285;126162;-65
2023/01/31 19:10:52;;;;;;;;;;;;;;;1.63;84.71;99045.57;212106;1295;126422;-65
2023/01/31 19:16:00;;;;;;;;;;;;;;;1.64;85.17;99036.53;211436;1292;125714;-64
2023/01/31 19:21:18;;;;;;;;;;;;;;;1.64;85.33;99021.16;212353;1292;125761;-63
2023/01/31 19:26:22;;;;;;;;;;;;;;;1.66;85.27;99012.66;211640;1285;125973;-65
2023/01/31 19:31:29;;;;;;;;;;;;;;;1.68;85.47;99002.52;211247;1292;137848;-65
2023/01/31 19:36:35;;;;;;;;;;;;;;;1.69;85.83;98985.51;211871;1287;126503;-65
2023/01/31 19:41:41;;;;;;;;;;;;;;;1.67;85.80;98969.70;212064;1294;127335;-64
2023/01/31 19:46:50;;;;;;;;;;;;;;;1.67;85.97;98956.96;211090;1292;126515;-64
2023/01/31 19:51:56;;;;;;;;;;;;;;;1.68;85.95;98948.27;213085;1295;125563;-65
2023/01/31 19:57:00;;;;;;;;;;;;;;;1.68;86.08;98942.90;211169;1288;126098;-65
2023/01/31 20:02:06;;;;;;;;;;;;;;;1.68;86.22;98940.16;212485;1288;126932;-64
2023/01/31 20:07:10;;;;;;;;;;;;;;;1.68;86.19;98939.55;213227;1288;126312;-65
2023/01/31 20:12:14;;;;;;;;;;;;;;;1.67;86.50;98936.71;213810;1292;126693;-64
2023/01/31 20:17:19;;;;;;;;;;;;;;;1.66;86.63;98931.09;214024;1288;126936;-65
2023/01/31 20:22:23;;;;;;;;;;;;;;;1.67;86.36;98926.89;213966;1288;126600;-65
2023/01/31 20:27:32;;;;;;;;;;;;;;;1.69;86.54;98923.50;214031;1279;125688;-65
2023/01/31 20:32:36;;;;;;;;;;;;;;;1.72;86.61;98911.59;213757;1294;126701;-64
2023/01/31 20:37:39;;;;;;;;;;;;;;;1.74;86.63;98900.69;211224;1288;125928;-65
2023/01/31 20:42:43;;;;;;;;;;;;;;;1.75;87.00;98892.31;212025;1294;126305;-64
2023/01/31 20:47:50;;;;;;;;;;;;;;;1.76;87.24;98891.96;211624;1291;127152;-65
2023/01/31 20:52:55;;;;;;;;;;;;;;;1.79;87.27;98901.23;211349;1289;125697;-64
2023/01/31 20:57:59;;;;;;;;;;;;;;;1.80;87.79;98895.25;211731;1286;126454;-64
2023/01/31 21:03:03;;;;;;;;;;;;;;;1.81;88.01;98899.50;211334;1282;127742;-67
2023/01/31 21:08:08;;;;;;;;;;;;;;;1.83;87.81;98896.14;211847;1291;126606;-65
2023/01/31 21:13:13;;;;;;;;;;;;;;;1.85;88.06;98893.05;211351;1293;125963;-66
2023/01/31 21:18:18;;;;;;;;;;;;;;;1.86;88.15;98884.77;210878;1288;126850;-65
2023/01/31 21:23:22;;;;;;;;;;;;;;;1.90;88.22;98876.23;211863;1287;128655;-65
2023/01/31 21:28:26;;;;;;;;;;;;;;;1.94;88.49;98869.95;211604;1285;126634;-64
2023/01/31 21:33:31;;;;;;;;;;;;;;;1.96;88.73;98861.23;211512;1282;125827;-67
2023/01/31 21:38:36;;;;;;;;;;;;;;;2.01;88.77;98854.15;211789;1286;126310;-64
2023/01/31 21:43:41;;;;;;;;;;;;;;;2.05;88.86;98837.30;211146;1288;125917;-65
2023/01/31 21:48:46;;;;;;;;;;;;;;;2.10;89.01;98836.30;212353;1294;126804;-65
2023/01/31 21:53:51;;;;;;;;;;;;;;;2.16;89.04;98822.88;212758;1295;126238;-65
2023/01/31 21:58:57;;;;;;;;;;;;;;;2.22;89.39;98813.25;213256;1292;126556;-65
2023/01/31 22:04:03;;;;;;;;;;;;;;;2.28;89.52;98810.02;211973;1294;127707;-65
2023/01/31 22:09:12;;;;;;;;;;;;;;;2.33;89.28;98796.42;214093;1286;125728;-66
2023/01/31 22:14:16;;;;;;;;;;;;;;;2.38;89.55;98782.79;214058;1295;126417;-67
2023/01/31 22:19:20;;;;;;;;;;;;;;;2.45;89.42;98779.29;214285;1293;126290;-67
2023/01/31 22:29:02;;;;;;;;;;;;;;;2.57;89.61;98765.45;208920;1334;634826;-65
2023/01/31 22:34:08;;;;;;;;;;;;;;;2.60;89.52;98766.17;208971;1292;129890;-66
2023/01/31 22:39:14;;;;;;;;;;;;;;;2.64;89.84;98765.83;209156;1295;424464;-66
2023/01/31 22:44:43;;;;;;;6.50;5.90;;;;;;;2.73;89.97;98762.66;207985;1339;635805;-67
2023/01/31 22:49:48;;;;;;;9.80;7.00;;;;;;;2.75;89.68;98772.05;208910;1314;139826;-64
2023/01/31 22:56:03;;;;;;;8.30;5.30;;;;;;;2.77;89.87;98762.23;213633;1301;658227;-65
2023/01/31 23:01:14;;;;;;;12.80;7.20;;;;;;;2.75;89.91;98756.42;215904;1270;138001;-66
2023/01/31 23:06:20;;;;;;;9.60;5.20;;;;;;;2.75;89.89;98780.91;215301;1267;561623;-68
2023/01/31 23:11:25;;;;;;;11.10;4.90;;;;;;;2.70;89.58;98788.62;215371;1272;146089;-67
2023/01/31 23:21:56;;;;;;;8.90;5.20;;;;;;;2.54;89.36;98788.64;215767;1273;138463;-68
2023/01/31 23:27:01;;;;;;;4.20;3.80;;;;;;;2.53;89.28;98773.06;215734;1272;139351;-68
2023/01/31 23:32:05;;;;;;;5.60;4.00;;;;;;;2.51;89.27;98757.33;215639;1269;139794;-65
2023/01/31 23:37:10;;;;;;;4.90;3.00;;;;;;;2.51;89.24;98751.98;216303;1271;139001;-67
2023/01/31 23:42:15;;;;;;;2.60;1.90;;;;;;;2.52;88.98;98761.29;215948;1269;139414;-66
2023/01/31 23:47:19;;;;;;;4.70;2.00;;;;;;;2.50;89.03;98778.95;217525;1265;141820;-67
2023/01/31 23:52:24;;;;;;;3.20;2.10;;;;;;;2.48;88.62;98788.05;216406;1266;138715;-66
2023/01/31 23:57:28;;;;;;;1.80;1.40;;;;;;;2.45;88.56;98793.36;217722;1266;139384;-67
